Baie-Comeau, Canada
Current Conditions -  °F | °C
As of 3:00 AM on Thursday 18 Dec 2014 (Local Time) from CYBC Reporting Station
Overcast Overcast  
Wind Chill: 18°   Ceiling: 1500
Heat Index: 28°   Visibility: 9mi
Dew Point: 25°   Wind: 13mph
Humidity: 86%   Direction: 40°NE
Pressure: 29.85"   Gusts: 22mph
Location:  49.22°N, 68.15°W
Report Text: CYBC 180800Z AUTO 04011G19KT 9SM OVC015 M02/M04 A2985 RMK SLP110
Loading
Personal Weather Stations






























Interactive Weather Map New forecast layout! Learn more

10-Day Weather Forecast

Advertisements
Track Severe Weather on mobile